createdAt,value
2022-12-23T00:00:43.313Z,10.90
2022-12-23T00:03:10.213Z,12.35
2022-12-23T00:05:38.602Z,13.60
2022-12-23T00:08:06.491Z,16.33
2022-12-23T00:10:34.172Z,14.30
2022-12-23T00:13:19.428Z,14.43
2022-12-23T00:15:46.220Z,13.98
2022-12-23T00:18:12.976Z,19.20
2022-12-23T00:20:39.683Z,16.08
2022-12-23T00:23:06.655Z,18.88
2022-12-23T00:25:41.851Z,15.73
2022-12-23T00:28:21.544Z,12.90
2022-12-23T00:31:09.395Z,17.70
2022-12-23T00:33:38.433Z,10.85
2022-12-23T00:36:31.443Z,12.30
2022-12-23T00:39:18.564Z,14.93
2022-12-23T00:42:04.205Z,17.88
2022-12-23T00:44:31.203Z,14.02
2022-12-23T00:46:57.917Z,15.77
2022-12-23T00:49:42.709Z,11.25
2022-12-23T00:52:12.364Z,10.90
2022-12-23T00:54:39.234Z,11.65
2022-12-23T00:57:06.200Z,13.30
2022-12-23T00:59:33.635Z,13.75
2022-12-23T01:02:18.791Z,13.45
2022-12-23T01:05:04.323Z,13.17
2022-12-23T01:07:31.057Z,9.10
2022-12-23T01:09:57.769Z,10.57
2022-12-23T01:12:24.444Z,13.15
2022-12-23T01:14:51.116Z,13.15
2022-12-23T01:17:18.615Z,11.57
2022-12-23T01:19:45.367Z,8.95
2022-12-23T01:22:12.089Z,10.98
2022-12-23T01:24:38.785Z,10.32
2022-12-23T01:27:05.549Z,10.73
2022-12-23T01:29:32.409Z,11.60
2022-12-23T01:31:59.231Z,12.00
2022-12-23T01:34:31.073Z,12.57
2022-12-23T01:37:01.121Z,10.13
2022-12-23T01:39:27.814Z,11.85
2022-12-23T01:42:13.260Z,11.30
2022-12-23T01:44:59.173Z,16.70
2022-12-23T01:47:31.416Z,14.10
2022-12-23T01:50:06.059Z,9.10
2022-12-23T01:52:38.597Z,17.23
2022-12-23T01:55:05.895Z,12.83
2022-12-23T01:57:33.837Z,12.23
2022-12-23T02:00:22.440Z,9.73
2022-12-23T02:03:10.267Z,13.88
2022-12-23T02:05:38.058Z,12.32
2022-12-23T02:08:23.460Z,12.97
2022-12-23T02:11:07.874Z,10.90
2022-12-23T02:14:04.648Z,11.32
2022-12-23T02:16:38.210Z,11.05
2022-12-23T02:19:20.904Z,9.73
2022-12-23T02:22:17.079Z,11.37
2022-12-23T02:25:24.561Z,12.27
2022-12-23T02:28:20.774Z,10.48
2022-12-23T02:31:14.395Z,13.05
2022-12-23T02:34:01.755Z,12.73
2022-12-23T02:36:46.992Z,9.17
2022-12-23T02:39:42.333Z,13.60
2022-12-23T02:42:17.051Z,10.18
2022-12-23T02:45:16.112Z,12.68
2022-12-23T02:47:56.449Z,12.00
2022-12-23T02:50:32.122Z,11.13
2022-12-23T02:53:03.885Z,12.05
2022-12-23T02:55:35.036Z,8.07
2022-12-23T02:58:06.377Z,12.95
2022-12-23T03:00:34.043Z,14.18
2022-12-23T03:03:01.093Z,9.20
2022-12-23T03:05:39.199Z,13.73
2022-12-23T03:08:11.140Z,10.73
2022-12-23T03:10:57.848Z,15.90
2022-12-23T03:13:51.327Z,10.63
2022-12-23T03:16:18.104Z,12.00
2022-12-23T03:19:11.582Z,10.75
2022-12-23T03:21:45.066Z,15.80
2022-12-23T03:24:34.997Z,12.73
2022-12-23T03:27:26.012Z,11.60
2022-12-23T03:29:57.933Z,12.43
2022-12-23T03:32:28.292Z,16.25
2022-12-23T03:34:58.833Z,13.38
2022-12-23T03:37:28.223Z,14.02
2022-12-23T03:40:01.581Z,13.63
2022-12-23T03:43:01.103Z,11.90
2022-12-23T03:45:42.008Z,14.95
2022-12-23T03:48:14.935Z,14.23
2022-12-23T03:50:43.005Z,14.40
2022-12-23T03:53:27.199Z,14.23
2022-12-23T03:56:04.285Z,15.40
2022-12-23T03:58:46.607Z,11.68
2022-12-23T04:01:36.017Z,13.80
2022-12-23T04:04:32.815Z,13.45
2022-12-23T04:07:30.100Z,16.02
2022-12-23T04:09:58.825Z,15.60
2022-12-23T04:12:27.822Z,12.57
2022-12-23T04:14:54.567Z,12.82
2022-12-23T04:17:21.520Z,13.88
2022-12-23T04:19:48.444Z,11.43
2022-12-23T04:22:16.380Z,13.37
2022-12-23T04:24:44.455Z,13.57
2022-12-23T04:27:14.307Z,12.93
2022-12-23T04:29:41.348Z,11.38
2022-12-23T04:32:08.265Z,11.02
2022-12-23T04:34:35.073Z,15.27
2022-12-23T04:37:01.977Z,13.52
2022-12-23T04:39:28.760Z,12.80
2022-12-23T04:41:55.488Z,10.30
2022-12-23T04:44:22.238Z,12.93
2022-12-23T04:46:49.053Z,13.23
2022-12-23T04:49:15.768Z,10.75
2022-12-23T04:51:42.519Z,12.95
2022-12-23T04:54:09.271Z,12.48
2022-12-23T04:56:35.949Z,13.55
2022-12-23T04:59:04.232Z,11.23
2022-12-23T05:01:31.100Z,13.93
2022-12-23T05:03:57.984Z,11.48
2022-12-23T05:06:24.851Z,12.98
2022-12-23T05:08:51.551Z,13.07
2022-12-23T05:11:18.350Z,11.13
2022-12-23T05:13:45.119Z,11.57
2022-12-23T05:16:11.941Z,12.40
2022-12-23T05:18:38.685Z,13.23
2022-12-23T05:21:05.573Z,15.02
2022-12-23T05:23:32.351Z,11.57
2022-12-23T05:25:59.090Z,10.43
2022-12-23T05:28:25.863Z,10.88
2022-12-23T05:31:04.047Z,11.52
2022-12-23T05:33:31.387Z,9.45
2022-12-23T05:35:58.279Z,14.33
2022-12-23T05:38:25.404Z,14.38
2022-12-23T05:40:52.431Z,12.00
2022-12-23T05:43:19.310Z,10.20
2022-12-23T05:45:47.348Z,13.50
2022-12-23T05:48:14.142Z,11.70
2022-12-23T05:50:40.979Z,12.13
2022-12-23T05:53:08.074Z,11.77
2022-12-23T05:55:35.798Z,12.85
2022-12-23T05:58:02.654Z,14.75
2022-12-23T06:00:29.613Z,9.70
2022-12-23T06:02:56.502Z,12.80
2022-12-23T06:05:23.351Z,11.85
2022-12-23T06:07:50.117Z,12.85
2022-12-23T06:10:16.984Z,10.25
2022-12-23T06:12:43.760Z,10.27
2022-12-23T06:15:11.019Z,12.30
2022-12-23T06:17:37.855Z,8.88
2022-12-23T06:20:05.583Z,8.75
2022-12-23T06:22:32.318Z,9.85
2022-12-23T06:24:59.124Z,10.10
2022-12-23T06:27:26.007Z,9.98
2022-12-23T06:29:52.679Z,9.38
2022-12-23T06:32:19.477Z,9.15
2022-12-23T06:34:46.742Z,9.35
2022-12-23T06:37:13.486Z,12.13
2022-12-23T06:39:40.312Z,9.25
2022-12-23T06:42:07.017Z,8.43
2022-12-23T06:44:33.712Z,12.07
2022-12-23T06:47:00.397Z,12.70
2022-12-23T06:49:27.146Z,10.90
2022-12-23T06:51:54.211Z,9.75
2022-12-23T06:54:20.962Z,10.48
2022-12-23T06:56:47.675Z,9.20
2022-12-23T06:59:14.418Z,9.43
2022-12-23T07:01:41.230Z,9.37
2022-12-23T07:04:08.042Z,10.20
2022-12-23T07:06:34.780Z,10.40
2022-12-23T07:09:01.661Z,11.05
2022-12-23T07:11:28.367Z,8.52
2022-12-23T07:13:55.063Z,10.77
2022-12-23T07:16:21.749Z,9.02
2022-12-23T07:18:48.525Z,9.48
2022-12-23T07:21:24.557Z,10.38
2022-12-23T07:23:55.226Z,9.77
2022-12-23T07:26:21.937Z,12.47
2022-12-23T07:28:49.008Z,11.52
2022-12-23T07:31:16.022Z,13.43
2022-12-23T07:33:43.003Z,12.80
2022-12-23T07:36:10.392Z,15.15
2022-12-23T07:38:37.180Z,13.27
2022-12-23T07:41:03.968Z,12.93
2022-12-23T07:43:30.834Z,13.00
2022-12-23T07:46:00.239Z,13.45
2022-12-23T07:48:27.777Z,11.40
2022-12-23T07:51:00.950Z,12.90
2022-12-23T07:53:28.167Z,15.27
2022-12-23T07:55:56.827Z,12.13
2022-12-23T07:58:24.189Z,12.30
2022-12-23T08:00:50.970Z,13.90
2022-12-23T08:03:17.914Z,14.20
2022-12-23T08:05:44.872Z,13.13
2022-12-23T08:08:11.976Z,13.88
2022-12-23T08:10:44.491Z,13.73
2022-12-23T08:13:14.737Z,17.13
2022-12-23T08:15:41.482Z,14.53
2022-12-23T08:18:08.195Z,24.25
2022-12-23T08:20:34.882Z,31.85
2022-12-23T08:23:01.604Z,34.30
2022-12-23T08:25:28.332Z,29.58
2022-12-23T08:27:55.026Z,24.77
2022-12-23T08:30:21.719Z,23.00
2022-12-23T08:32:48.400Z,23.95
2022-12-23T08:35:15.185Z,21.83
2022-12-23T08:37:41.862Z,17.55
2022-12-23T08:40:09.193Z,19.97
2022-12-23T08:42:35.956Z,18.38
2022-12-23T08:45:02.714Z,22.45
2022-12-23T08:47:29.419Z,21.52
2022-12-23T08:49:56.198Z,25.48
2022-12-23T08:52:22.927Z,20.27
2022-12-23T08:54:49.735Z,20.00
2022-12-23T08:57:16.494Z,19.75
2022-12-23T08:59:43.244Z,23.42
2022-12-23T09:02:11.999Z,19.73
2022-12-23T09:04:39.140Z,20.57
2022-12-23T09:07:06.034Z,20.15
2022-12-23T09:09:32.769Z,20.88
2022-12-23T09:11:59.551Z,22.40
2022-12-23T09:14:26.260Z,21.92
2022-12-23T09:16:53.221Z,24.83
2022-12-23T09:19:20.371Z,26.48
2022-12-23T09:21:47.184Z,23.70
2022-12-23T09:24:13.950Z,24.90
2022-12-23T09:26:40.733Z,27.08
2022-12-23T09:29:07.497Z,22.80
2022-12-23T09:31:37.126Z,25.65
2022-12-23T09:34:04.786Z,23.60
2022-12-23T09:36:31.565Z,24.33
2022-12-23T09:38:58.739Z,26.75
2022-12-23T09:41:40.583Z,25.57
2022-12-23T09:44:19.035Z,27.10
2022-12-23T09:46:51.512Z,30.65
2022-12-23T09:49:20.875Z,31.52
2022-12-23T09:51:50.518Z,37.75
2022-12-23T09:54:24.424Z,36.17
2022-12-23T09:57:31.803Z,55.38
2022-12-23T10:00:12.255Z,40.60
2022-12-23T10:03:03.544Z,31.58
2022-12-23T10:05:48.584Z,36.53
2022-12-23T10:08:33.196Z,35.83
2022-12-23T10:11:12.623Z,35.08
2022-12-23T10:13:48.551Z,35.05
2022-12-23T10:16:29.570Z,32.05
2022-12-23T10:19:18.708Z,29.20
2022-12-23T10:21:50.031Z,32.53
2022-12-23T10:24:25.377Z,27.00
2022-12-23T10:26:58.018Z,35.95
2022-12-23T10:29:26.872Z,30.67
2022-12-23T10:32:35.891Z,25.58
2022-12-23T10:35:32.439Z,28.50
2022-12-23T10:38:17.300Z,24.42
2022-12-23T10:40:55.789Z,25.70
2022-12-23T10:43:46.164Z,22.00
2022-12-23T10:46:34.053Z,23.83
2022-12-23T10:49:18.586Z,24.10
2022-12-23T10:51:57.709Z,23.35
2022-12-23T10:54:30.235Z,21.83
2022-12-23T10:56:56.993Z,19.33
2022-12-23T10:59:28.426Z,22.88
2022-12-23T11:02:05.071Z,19.80
2022-12-23T11:04:37.084Z,19.48
2022-12-23T11:07:42.067Z,23.45
2022-12-23T11:10:01.892Z,21.30
2022-12-23T11:12:43.307Z,25.60
2022-12-23T11:15:28.758Z,24.87
2022-12-23T11:18:06.854Z,27.00
2022-12-23T11:20:36.403Z,26.92
2022-12-23T11:23:04.884Z,30.65
2022-12-23T11:25:34.804Z,37.22
2022-12-23T11:28:04.572Z,32.83
2022-12-23T11:30:35.264Z,32.17
2022-12-23T11:33:02.111Z,29.40
2022-12-23T11:35:34.759Z,26.40
2022-12-23T11:38:02.848Z,32.35
2022-12-23T11:40:38.025Z,40.50
2022-12-23T11:43:12.738Z,35.53
2022-12-23T11:45:39.690Z,37.00
2022-12-23T11:48:25.652Z,43.63
2022-12-23T11:51:03.563Z,41.17
2022-12-23T11:53:31.400Z,38.70
2022-12-23T11:56:14.758Z,40.63
2022-12-23T11:58:54.682Z,47.35
2022-12-23T12:01:24.743Z,46.58
2022-12-23T12:03:59.028Z,46.80
2022-12-23T12:06:27.202Z,45.97
2022-12-23T12:08:57.945Z,51.17
2022-12-23T12:11:33.044Z,47.25
2022-12-23T12:14:03.241Z,47.58
2022-12-23T12:16:51.677Z,46.25
2022-12-23T12:19:59.328Z,41.10
2022-12-23T12:22:49.287Z,42.70
2022-12-23T12:25:23.477Z,42.13
2022-12-23T12:28:07.025Z,36.90
2022-12-23T12:30:39.767Z,38.70
2022-12-23T12:33:27.179Z,38.23
2022-12-23T12:36:15.441Z,41.78
2022-12-23T12:38:45.800Z,38.53
2022-12-23T12:41:22.752Z,32.38
2022-12-23T12:44:00.702Z,32.72
2022-12-23T12:46:51.353Z,35.57
2022-12-23T12:49:36.278Z,31.00
2022-12-23T12:52:15.595Z,38.13
2022-12-23T12:54:45.835Z,31.23
2022-12-23T12:57:18.158Z,35.45
2022-12-23T12:59:47.668Z,30.00
2022-12-23T13:02:26.747Z,29.92
2022-12-23T13:05:30.985Z,32.58
2022-12-23T13:08:21.784Z,29.77
2022-12-23T13:11:02.572Z,30.42
2022-12-23T13:14:09.681Z,29.70
2022-12-23T13:16:39.410Z,29.38
2022-12-23T13:19:32.423Z,31.60
2022-12-23T13:22:11.371Z,29.27
2022-12-23T13:24:49.956Z,26.73
2022-12-23T13:27:30.554Z,33.83
2022-12-23T13:30:06.331Z,34.25
2022-12-23T13:32:48.114Z,29.20
2022-12-23T13:35:48.743Z,28.77
2022-12-23T13:38:36.936Z,33.70
2022-12-23T13:41:34.406Z,32.53
2022-12-23T13:44:02.105Z,28.85
2022-12-23T13:47:02.983Z,27.35
2022-12-23T13:49:50.691Z,26.13
2022-12-23T13:52:27.492Z,25.50
2022-12-23T13:54:54.203Z,25.97
2022-12-23T13:57:42.671Z,23.90
2022-12-23T14:00:30.751Z,21.55
2022-12-23T14:03:00.824Z,21.80
2022-12-23T14:05:30.749Z,21.10
2022-12-23T14:07:59.682Z,23.97
2022-12-23T14:10:27.110Z,22.88
2022-12-23T14:13:08.460Z,22.63
2022-12-23T14:15:38.256Z,28.75
2022-12-23T14:18:25.320Z,23.27
2022-12-23T14:21:38.798Z,26.03
2022-12-23T14:24:32.850Z,27.73
2022-12-23T14:27:11.515Z,25.38
2022-12-23T14:30:16.000Z,21.08
2022-12-23T14:32:50.149Z,21.63
2022-12-23T14:35:36.981Z,21.23
2022-12-23T14:38:14.759Z,20.13
2022-12-23T14:40:53.186Z,20.85
2022-12-23T14:43:23.164Z,22.02
2022-12-23T14:45:52.346Z,20.80
2022-12-23T14:48:34.632Z,20.37
2022-12-23T14:51:20.928Z,21.50
2022-12-23T14:53:53.946Z,18.27
2022-12-23T14:56:26.486Z,20.58
2022-12-23T14:58:59.422Z,20.88
2022-12-23T15:01:40.981Z,23.90
2022-12-23T15:04:45.035Z,16.38
2022-12-23T15:07:31.798Z,17.90
2022-12-23T15:10:01.334Z,18.40
2022-12-23T15:12:41.378Z,19.63
2022-12-23T15:15:18.556Z,17.60
2022-12-23T15:17:45.804Z,19.50
2022-12-23T15:20:22.196Z,20.85
2022-12-23T15:22:50.019Z,17.30
2022-12-23T15:25:31.471Z,19.08
2022-12-23T15:28:02.204Z,16.97
2022-12-23T15:30:37.320Z,19.58
2022-12-23T15:33:34.816Z,16.77
2022-12-23T15:35:56.027Z,19.55
2022-12-23T15:38:27.184Z,18.27
2022-12-23T15:41:00.743Z,16.83
2022-12-23T15:43:27.855Z,20.52
2022-12-23T15:45:54.586Z,15.40
2022-12-23T15:48:25.778Z,16.35
2022-12-23T15:50:57.851Z,15.68
2022-12-23T15:53:32.120Z,15.97
2022-12-23T15:56:00.323Z,16.52
2022-12-23T15:58:28.931Z,15.60
2022-12-23T16:00:58.142Z,15.75
2022-12-23T16:03:27.212Z,16.77
2022-12-23T16:05:54.266Z,19.00
2022-12-23T16:08:29.623Z,18.88
2022-12-23T16:11:13.628Z,17.35
2022-12-23T16:13:46.757Z,16.58
2022-12-23T16:16:20.066Z,17.25
2022-12-23T16:18:47.925Z,16.20
2022-12-23T16:21:15.305Z,20.67
2022-12-23T16:23:49.608Z,20.30
2022-12-23T16:26:16.354Z,22.55
2022-12-23T16:28:45.350Z,19.60
2022-12-23T16:31:17.129Z,14.93
2022-12-23T16:33:45.650Z,17.30
2022-12-23T16:36:27.727Z,17.30
2022-12-23T16:39:21.486Z,17.02
2022-12-23T16:41:49.198Z,13.93
2022-12-23T16:44:16.355Z,13.30
2022-12-23T16:46:47.077Z,13.65
2022-12-23T16:49:26.595Z,13.45
2022-12-23T16:51:56.417Z,15.68
2022-12-23T16:54:23.103Z,16.02
2022-12-23T16:56:52.562Z,14.40
2022-12-23T16:59:20.563Z,16.63
2022-12-23T17:01:48.994Z,13.43
2022-12-23T17:04:17.243Z,16.45
2022-12-23T17:06:46.325Z,15.55
2022-12-23T17:09:13.607Z,16.67
2022-12-23T17:11:43.252Z,19.25
2022-12-23T17:14:24.557Z,18.70
2022-12-23T17:16:51.915Z,17.98
2022-12-23T17:19:27.946Z,17.58
2022-12-23T17:22:00.241Z,19.10
2022-12-23T17:24:27.488Z,17.83
2022-12-23T17:26:55.121Z,19.65
2022-12-23T17:29:21.917Z,23.65
2022-12-23T17:31:50.068Z,22.02
2022-12-23T17:34:19.520Z,22.67
2022-12-23T17:36:50.401Z,23.67
2022-12-23T17:39:18.857Z,24.42
2022-12-23T17:41:46.010Z,23.85
2022-12-23T17:44:17.752Z,21.70
2022-12-23T17:46:46.034Z,20.27
2022-12-23T17:49:13.136Z,19.05
2022-12-23T17:51:41.235Z,20.38
2022-12-23T17:54:21.585Z,17.95
2022-12-23T17:56:48.329Z,14.00
2022-12-23T17:59:15.277Z,17.50
2022-12-23T18:01:42.231Z,17.38
2022-12-23T18:04:09.123Z,15.00
2022-12-23T18:06:36.001Z,19.13
2022-12-23T18:09:02.710Z,19.02
2022-12-23T18:11:41.759Z,22.60
2022-12-23T18:14:16.377Z,15.60
2022-12-23T18:16:43.224Z,14.25
2022-12-23T18:19:18.267Z,18.73
2022-12-23T18:21:45.150Z,16.13
2022-12-23T18:24:11.902Z,14.43
2022-12-23T18:26:38.693Z,18.48
2022-12-23T18:29:05.455Z,16.20
2022-12-23T18:31:32.591Z,19.13
2022-12-23T18:34:00.102Z,22.83
2022-12-23T18:36:33.298Z,14.83
2022-12-23T18:39:00.407Z,19.58
2022-12-23T18:41:27.573Z,27.08
2022-12-23T18:43:54.983Z,27.92
2022-12-23T18:46:22.009Z,32.80
2022-12-23T18:48:48.900Z,40.00
2022-12-23T18:51:17.482Z,35.78
2022-12-23T18:53:44.329Z,35.17
2022-12-23T18:56:15.659Z,35.20
2022-12-23T18:58:42.821Z,34.95
2022-12-23T19:01:14.298Z,30.70
2022-12-23T19:03:42.133Z,33.88
2022-12-23T19:06:10.149Z,37.28
2022-12-23T19:08:37.648Z,42.50
2022-12-23T19:11:17.182Z,31.48
2022-12-23T19:13:44.255Z,31.33
2022-12-23T19:16:15.943Z,31.25
2022-12-23T19:18:43.085Z,38.20
2022-12-23T19:21:09.956Z,30.13
2022-12-23T19:23:38.907Z,38.17
2022-12-23T19:26:06.192Z,34.50
2022-12-23T19:28:33.560Z,35.13
2022-12-23T19:31:00.401Z,41.40
2022-12-23T19:33:27.270Z,22.63
2022-12-23T19:35:54.017Z,26.88
2022-12-23T19:38:21.134Z,32.23
2022-12-23T19:40:57.489Z,34.22
2022-12-23T19:43:24.378Z,37.42
2022-12-23T19:45:58.193Z,48.97
2022-12-23T19:48:25.031Z,41.70
2022-12-23T19:51:16.439Z,35.13
2022-12-23T19:53:44.659Z,30.27
2022-12-23T19:56:13.969Z,39.05
2022-12-23T19:58:43.286Z,41.60
2022-12-23T20:01:16.736Z,41.55
2022-12-23T20:03:45.078Z,37.40
2022-12-23T20:06:18.558Z,35.13
2022-12-23T20:08:45.435Z,35.40
2022-12-23T20:11:14.837Z,36.67
2022-12-23T20:13:41.659Z,39.05
2022-12-23T20:16:09.692Z,34.90
2022-12-23T20:18:37.181Z,34.30
2022-12-23T20:21:04.403Z,33.30
2022-12-23T20:23:31.421Z,28.35
2022-12-23T20:25:58.235Z,38.17
2022-12-23T20:28:24.952Z,39.27
2022-12-23T20:31:09.387Z,30.08
2022-12-23T20:33:38.007Z,34.00
2022-12-23T20:36:08.981Z,37.80
2022-12-23T20:38:41.014Z,33.00
2022-12-23T20:41:09.732Z,37.30
2022-12-23T20:43:37.029Z,33.10
2022-12-23T20:46:05.238Z,26.88
2022-12-23T20:48:34.429Z,26.08
2022-12-23T20:51:06.442Z,25.98
2022-12-23T20:53:33.445Z,26.00
2022-12-23T20:56:04.765Z,30.63
2022-12-23T20:58:50.382Z,20.88
2022-12-23T21:01:17.446Z,26.00
2022-12-23T21:03:44.287Z,21.92
2022-12-23T21:06:10.990Z,22.83
2022-12-23T21:08:38.633Z,19.52
2022-12-23T21:11:06.234Z,19.05
2022-12-23T21:13:33.546Z,19.85
2022-12-23T21:16:02.169Z,21.67
2022-12-23T21:18:29.134Z,20.13
2022-12-23T21:21:04.049Z,21.23
2022-12-23T21:23:31.333Z,19.83
2022-12-23T21:26:20.455Z,21.35
2022-12-23T21:28:49.229Z,18.33
2022-12-23T21:31:18.937Z,24.83
2022-12-23T21:33:47.513Z,22.90
2022-12-23T21:36:19.977Z,21.40
2022-12-23T21:38:48.594Z,17.55
2022-12-23T21:41:18.476Z,23.88
2022-12-23T21:43:45.433Z,20.67
2022-12-23T21:46:15.250Z,14.05
2022-12-23T21:48:42.490Z,14.30
2022-12-23T21:51:15.757Z,14.50
2022-12-23T21:53:44.331Z,17.10
2022-12-23T21:56:13.860Z,22.77
2022-12-23T21:58:41.421Z,15.23
2022-12-23T22:01:09.807Z,17.05
2022-12-23T22:03:37.313Z,16.15
2022-12-23T22:06:10.636Z,19.95
2022-12-23T22:08:39.184Z,19.53
2022-12-23T22:11:11.008Z,14.63
2022-12-23T22:13:38.560Z,18.23
2022-12-23T22:16:09.734Z,17.60
2022-12-23T22:18:37.993Z,23.10
2022-12-23T22:21:06.544Z,16.77
2022-12-23T22:23:33.476Z,23.40
2022-12-23T22:26:00.436Z,21.98
2022-12-23T22:28:27.384Z,23.75
2022-12-23T22:31:00.273Z,21.20
2022-12-23T22:33:26.951Z,21.63
2022-12-23T22:35:58.015Z,16.75
2022-12-23T22:38:24.724Z,16.70
2022-12-23T22:40:52.474Z,16.45
2022-12-23T22:43:19.473Z,20.25
2022-12-23T22:45:46.807Z,19.73
2022-12-23T22:48:13.861Z,16.42
2022-12-23T22:50:40.555Z,21.08
2022-12-23T22:53:07.232Z,17.05
2022-12-23T22:55:33.960Z,23.20
2022-12-23T22:58:00.681Z,17.40
2022-12-23T23:00:27.415Z,13.18
2022-12-23T23:02:54.141Z,17.83
2022-12-23T23:05:21.068Z,18.58
2022-12-23T23:07:47.887Z,16.48
2022-12-23T23:10:14.963Z,20.17
2022-12-23T23:12:43.937Z,13.93
2022-12-23T23:15:11.146Z,27.02
2022-12-23T23:17:37.881Z,20.88
2022-12-23T23:20:05.077Z,14.57
2022-12-23T23:22:31.780Z,18.83
2022-12-23T23:24:58.507Z,25.52
2022-12-23T23:27:25.222Z,20.55
2022-12-23T23:29:51.893Z,23.00
2022-12-23T23:32:18.743Z,15.85
2022-12-23T23:34:45.547Z,25.70
2022-12-23T23:37:13.938Z,32.65
2022-12-23T23:39:40.687Z,14.65
2022-12-23T23:42:07.457Z,19.33
2022-12-23T23:44:34.151Z,19.58
2022-12-23T23:47:00.899Z,20.00
2022-12-23T23:49:27.572Z,21.65
2022-12-23T23:51:54.337Z,26.15
2022-12-23T23:54:21.209Z,23.08
2022-12-23T23:56:48.029Z,19.65
2022-12-23T23:59:14.737Z,23.00
